sensor_id;sensor_type;location;lat;lon;timestamp;pressure;altitude;pressure_sealevel;temperature;humidity
11212;BME280;5663;50.864;12.096;2023-05-02T00:00:39;99277.19;;;12.90;68.94
11212;BME280;5663;50.864;12.096;2023-05-02T00:03:08;99273.16;;;12.85;68.95
11212;BME280;5663;50.864;12.096;2023-05-02T00:05:37;99276.06;;;12.80;69.29
11212;BME280;5663;50.864;12.096;2023-05-02T00:08:05;99278.97;;;12.75;68.93
11212;BME280;5663;50.864;12.096;2023-05-02T00:10:35;99284.38;;;12.72;68.98
11212;BME280;5663;50.864;12.096;2023-05-02T00:13:03;99281.03;;;12.70;69.06
11212;BME280;5663;50.864;12.096;2023-05-02T00:15:31;99271.34;;;12.58;69.49
11212;BME280;5663;50.864;12.096;2023-05-02T00:17:59;99268.63;;;12.60;69.94
11212;BME280;5663;50.864;12.096;2023-05-02T00:20:27;99250.38;;;12.45;70.17
11212;BME280;5663;50.864;12.096;2023-05-02T00:22:55;99263.50;;;12.44;70.43
11212;BME280;5663;50.864;12.096;2023-05-02T00:25:24;99268.16;;;12.39;70.41
11212;BME280;5663;50.864;12.096;2023-05-02T01:26:44;99276.59;;;11.06;70.16
11212;BME280;5663;50.864;12.096;2023-05-02T01:29:16;99282.13;;;11.00;70.36
11212;BME280;5663;50.864;12.096;2023-05-02T01:31:48;99284.81;;;10.98;70.28
11212;BME280;5663;50.864;12.096;2023-05-02T01:34:19;99282.28;;;10.97;70.26
11212;BME280;5663;50.864;12.096;2023-05-02T01:36:49;99236.03;;;10.70;70.19
11212;BME280;5663;50.864;12.096;2023-05-02T01:39:20;99267.53;;;10.81;70.32
11212;BME280;5663;50.864;12.096;2023-05-02T01:41:50;99289.66;;;10.89;70.45
11212;BME280;5663;50.864;12.096;2023-05-02T01:44:21;99294.19;;;10.85;70.07
11212;BME280;5663;50.864;12.096;2023-05-02T01:46:52;99293.34;;;10.84;70.31
11212;BME280;5663;50.864;12.096;2023-05-02T01:49:22;99270.94;;;10.66;70.04
11212;BME280;5663;50.864;12.096;2023-05-02T01:51:51;99300.56;;;10.79;70.34
11212;BME280;5663;50.864;12.096;2023-05-02T01:54:22;99304.00;;;10.80;70.38
11212;BME280;5663;50.864;12.096;2023-05-02T01:56:51;99272.31;;;10.56;70.12
11212;BME280;5663;50.864;12.096;2023-05-02T01:59:21;99305.91;;;10.76;70.35
11212;BME280;5663;50.864;12.096;2023-05-02T02:01:50;99314.66;;;10.75;70.50
11212;BME280;5663;50.864;12.096;2023-05-02T02:04:19;99312.06;;;10.75;70.46
11212;BME280;5663;50.864;12.096;2023-05-02T02:06:52;99314.81;;;10.72;70.56
11212;BME280;5663;50.864;12.096;2023-05-02T02:09:22;99323.53;;;10.71;70.50
11212;BME280;5663;50.864;12.096;2023-05-02T02:11:52;99323.69;;;10.68;70.59
11212;BME280;5663;50.864;12.096;2023-05-02T02:14:24;99305.69;;;10.48;70.62
11212;BME280;5663;50.864;12.096;2023-05-02T02:16:55;99283.16;;;10.31;71.04
11212;BME280;5663;50.864;12.096;2023-05-02T02:19:23;99324.66;;;10.50;71.15
11212;BME280;5663;50.864;12.096;2023-05-02T02:21:54;99338.56;;;10.49;71.38
11212;BME280;5663;50.864;12.096;2023-05-02T02:24:23;99341.16;;;10.49;71.45
11212;BME280;5663;50.864;12.096;2023-05-02T02:26:52;99336.88;;;10.48;71.38
11212;BME280;5663;50.864;12.096;2023-05-02T02:29:22;99343.94;;;10.46;71.59
11212;BME280;5663;50.864;12.096;2023-05-02T02:31:50;99343.94;;;10.46;71.47
11212;BME280;5663;50.864;12.096;2023-05-02T02:34:21;99349.13;;;10.46;71.80
11212;BME280;5663;50.864;12.096;2023-05-02T02:36:54;99343.94;;;10.46;71.83
11212;BME280;5663;50.864;12.096;2023-05-02T02:39:34;99350.81;;;10.47;72.02
11212;BME280;5663;50.864;12.096;2023-05-02T02:42:11;99355.22;;;10.45;72.10
11212;BME280;5663;50.864;12.096;2023-05-02T02:45:03;99355.22;;;10.45;72.06
11212;BME280;5663;50.864;12.096;2023-05-02T02:47:43;99311.06;;;10.10;72.07
11212;BME280;5663;50.864;12.096;2023-05-02T02:50:16;99368.41;;;10.42;72.11
11212;BME280;5663;50.864;12.096;2023-05-02T02:52:52;99351.72;;;10.28;72.14
11212;BME280;5663;50.864;12.096;2023-05-02T02:55:35;99366.88;;;10.38;71.87
11212;BME280;5663;50.864;12.096;2023-05-02T02:58:17;99375.56;;;10.36;72.00
11212;BME280;5663;50.864;12.096;2023-05-02T03:00:48;99380.94;;;10.33;71.51
11212;BME280;5663;50.864;12.096;2023-05-02T03:03:19;99388.75;;;10.33;71.56
11212;BME280;5663;50.864;12.096;2023-05-02T03:05:51;99385.47;;;10.30;71.31
11212;BME280;5663;50.864;12.096;2023-05-02T03:08:19;99390.81;;;10.27;71.37
11212;BME280;5663;50.864;12.096;2023-05-02T03:10:47;99395.28;;;10.23;71.41
11212;BME280;5663;50.864;12.096;2023-05-02T03:13:14;99400.63;;;10.20;71.42
11212;BME280;5663;50.864;12.096;2023-05-02T03:18:47;99401.06;;;10.11;71.52
11212;BME280;5663;50.864;12.096;2023-05-02T03:21:15;99402.88;;;10.09;71.20
11212;BME280;5663;50.864;12.096;2023-05-02T03:23:43;99406.56;;;10.05;71.70
11212;BME280;5663;50.864;12.096;2023-05-02T03:26:12;99410.91;;;10.04;71.74
11212;BME280;5663;50.864;12.096;2023-05-02T04:27:20;99483.44;;;10.09;73.17
11212;BME280;5663;50.864;12.096;2023-05-02T04:29:49;99486.75;;;10.12;73.39
11212;BME280;5663;50.864;12.096;2023-05-02T04:32:20;99490.81;;;10.18;73.72
11212;BME280;5663;50.864;12.096;2023-05-02T04:34:47;99492.25;;;10.25;73.92
11212;BME280;5663;50.864;12.096;2023-05-02T04:37:15;99491.94;;;10.31;74.06
11212;BME280;5663;50.864;12.096;2023-05-02T04:39:44;99497.69;;;10.38;74.09
11212;BME280;5663;50.864;12.096;2023-05-02T04:42:12;99495.16;;;10.36;74.17
11212;BME280;5663;50.864;12.096;2023-05-02T04:44:43;99510.16;;;10.49;74.08
11212;BME280;5663;50.864;12.096;2023-05-02T04:47:11;99507.28;;;10.55;73.95
11212;BME280;5663;50.864;12.096;2023-05-02T04:49:41;99513.94;;;10.60;73.73
11212;BME280;5663;50.864;12.096;2023-05-02T04:52:12;99521.50;;;10.65;74.10
11212;BME280;5663;50.864;12.096;2023-05-02T04:54:48;99504.53;;;10.58;74.26
11212;BME280;5663;50.864;12.096;2023-05-02T04:57:19;99504.69;;;10.55;74.49
11212;BME280;5663;50.864;12.096;2023-05-02T04:59:52;99529.72;;;10.75;74.75
11212;BME280;5663;50.864;12.096;2023-05-02T05:02:21;99532.88;;;10.81;74.79
11212;BME280;5663;50.864;12.096;2023-05-02T05:04:50;99540.44;;;10.86;74.75
11212;BME280;5663;50.864;12.096;2023-05-02T05:07:22;99537.59;;;10.91;74.83
11212;BME280;5663;50.864;12.096;2023-05-02T05:09:50;99539.88;;;10.97;74.88
11212;BME280;5663;50.864;12.096;2023-05-02T05:12:19;99545.88;;;10.99;74.71
11212;BME280;5663;50.864;12.096;2023-05-02T05:14:47;99556.84;;;11.05;74.78
11212;BME280;5663;50.864;12.096;2023-05-02T05:17:17;99552.28;;;11.09;74.91
11212;BME280;5663;50.864;12.096;2023-05-02T05:19:45;99552.16;;;11.12;74.95
11212;BME280;5663;50.864;12.096;2023-05-02T05:22:13;99557.28;;;11.14;75.13
11212;BME280;5663;50.864;12.096;2023-05-02T05:24:41;99565.78;;;11.17;75.39
11212;BME280;5663;50.864;12.096;2023-05-02T05:27:09;99576.03;;;11.20;75.38
11212;BME280;5663;50.864;12.096;2023-05-02T06:28:27;99649.56;;;12.11;76.22
11212;BME280;5663;50.864;12.096;2023-05-02T06:30:58;99655.38;;;12.16;76.42
11212;BME280;5663;50.864;12.096;2023-05-02T06:33:27;99631.63;;;12.04;76.42
11212;BME280;5663;50.864;12.096;2023-05-02T06:35:56;99665.25;;;12.26;76.65
11212;BME280;5663;50.864;12.096;2023-05-02T06:38:26;99669.38;;;12.30;76.82
11212;BME280;5663;50.864;12.096;2023-05-02T06:40:56;99672.56;;;12.36;76.97
11212;BME280;5663;50.864;12.096;2023-05-02T06:43:25;99667.34;;;12.36;77.20
11212;BME280;5663;50.864;12.096;2023-05-02T06:45:54;99673.94;;;12.43;77.44
11212;BME280;5663;50.864;12.096;2023-05-02T06:48:22;99676.22;;;12.49;77.41
11212;BME280;5663;50.864;12.096;2023-05-02T06:50:52;99687.25;;;12.54;77.62
11212;BME280;5663;50.864;12.096;2023-05-02T06:53:20;99681.69;;;12.60;77.47
11212;BME280;5663;50.864;12.096;2023-05-02T06:55:48;99696.09;;;12.67;77.61
11212;BME280;5663;50.864;12.096;2023-05-02T06:58:16;99681.00;;;12.72;77.82
11212;BME280;5663;50.864;12.096;2023-05-02T07:00:45;99694.47;;;12.80;77.81
11212;BME280;5663;50.864;12.096;2023-05-02T07:03:14;99680.13;;;12.73;77.42
11212;BME280;5663;50.864;12.096;2023-05-02T07:05:42;99706.78;;;12.94;77.97
11212;BME280;5663;50.864;12.096;2023-05-02T07:08:10;99681.44;;;12.80;77.57
11212;BME280;5663;50.864;12.096;2023-05-02T07:10:38;99713.28;;;13.03;78.08
11212;BME280;5663;50.864;12.096;2023-05-02T07:13:08;99722.63;;;13.07;77.99
11212;BME280;5663;50.864;12.096;2023-05-02T07:15:35;99723.28;;;13.11;78.14
11212;BME280;5663;50.864;12.096;2023-05-02T07:18:05;99721.34;;;13.14;77.94
11212;BME280;5663;50.864;12.096;2023-05-02T07:20:33;99729.03;;;13.17;77.52
11212;BME280;5663;50.864;12.096;2023-05-02T07:23:01;99715.03;;;13.18;77.93
11212;BME280;5663;50.864;12.096;2023-05-02T07:25:29;99732.56;;;13.32;77.52
11212;BME280;5663;50.864;12.096;2023-05-02T07:27:57;99741.66;;;13.41;77.80
11212;BME280;5663;50.864;12.096;2023-05-02T10:24:06;99871.25;;;17.84;56.50
11212;BME280;5663;50.864;12.096;2023-05-02T10:26:34;99869.63;;;17.94;57.35
11212;BME280;5663;50.864;12.096;2023-05-02T10:29:09;99868.72;;;18.06;56.86
11212;BME280;5663;50.864;12.096;2023-05-02T10:31:38;99831.09;;;17.93;57.19
11212;BME280;5663;50.864;12.096;2023-05-02T10:34:10;99871.94;;;18.34;57.81
11212;BME280;5663;50.864;12.096;2023-05-02T10:36:41;99864.28;;;18.42;58.20
11212;BME280;5663;50.864;12.096;2023-05-02T10:39:16;99869.38;;;18.67;57.27
11212;BME280;5663;50.864;12.096;2023-05-02T10:41:46;99871.13;;;18.80;56.49
11212;BME280;5663;50.864;12.096;2023-05-02T10:44:13;99871.09;;;18.91;53.91
11212;BME280;5663;50.864;12.096;2023-05-02T10:46:45;99880.47;;;18.95;54.25
11212;BME280;5663;50.864;12.096;2023-05-02T10:49:15;99870.63;;;18.97;53.91
11212;BME280;5663;50.864;12.096;2023-05-02T10:51:45;99868.72;;;18.99;53.62
11212;BME280;5663;50.864;12.096;2023-05-02T10:54:24;99796.19;;;18.60;52.88
11212;BME280;5663;50.864;12.096;2023-05-02T10:57:04;99868.00;;;19.08;52.59
11212;BME280;5663;50.864;12.096;2023-05-02T10:59:38;99872.06;;;19.12;52.52
11212;BME280;5663;50.864;12.096;2023-05-02T11:02:46;99863.66;;;19.18;52.79
11212;BME280;5663;50.864;12.096;2023-05-02T11:05:14;99863.06;;;19.26;52.73
11212;BME280;5663;50.864;12.096;2023-05-02T11:07:44;99861.03;;;19.30;51.54
11212;BME280;5663;50.864;12.096;2023-05-02T11:10:27;99867.03;;;19.32;52.34
11212;BME280;5663;50.864;12.096;2023-05-02T11:12:57;99836.22;;;19.21;52.83
11212;BME280;5663;50.864;12.096;2023-05-02T11:15:54;99868.94;;;19.41;49.54
11212;BME280;5663;50.864;12.096;2023-05-02T11:18:26;99865.09;;;19.34;49.90
11212;BME280;5663;50.864;12.096;2023-05-02T11:21:26;99867.41;;;19.27;49.79
11212;BME280;5663;50.864;12.096;2023-05-02T11:27:37;99859.81;;;19.67;50.29
11212;BME280;5663;50.864;12.096;2023-05-02T11:30:10;99866.09;;;19.87;50.86
11212;BME280;5663;50.864;12.096;2023-05-02T11:33:10;99859.22;;;19.96;49.79
11212;BME280;5663;50.864;12.096;2023-05-02T11:35:43;99855.81;;;20.05;50.74
11212;BME280;5663;50.864;12.096;2023-05-02T11:38:14;99857.25;;;20.09;50.51
11212;BME280;5663;50.864;12.096;2023-05-02T11:40:58;99855.13;;;20.24;49.73
11212;BME280;5663;50.864;12.096;2023-05-02T11:43:31;99849.72;;;20.47;49.85
11212;BME280;5663;50.864;12.096;2023-05-02T11:45:59;99830.91;;;20.61;49.47
11212;BME280;5663;50.864;12.096;2023-05-02T11:48:29;99842.56;;;20.79;47.81
11212;BME280;5663;50.864;12.096;2023-05-02T11:50:59;99844.91;;;21.03;47.80
11212;BME280;5663;50.864;12.096;2023-05-02T11:53:39;99830.78;;;21.24;47.45
11212;BME280;5663;50.864;12.096;2023-05-02T11:56:09;99818.69;;;21.31;47.54
11212;BME280;5663;50.864;12.096;2023-05-02T11:58:39;99822.09;;;21.52;46.36
11212;BME280;5663;50.864;12.096;2023-05-02T12:01:14;99840.94;;;21.88;46.50
11212;BME280;5663;50.864;12.096;2023-05-02T12:03:43;99840.09;;;21.97;47.90
11212;BME280;5663;50.864;12.096;2023-05-02T12:06:16;99840.34;;;21.94;46.68
11212;BME280;5663;50.864;12.096;2023-05-02T12:08:46;99847.31;;;21.56;45.50
11212;BME280;5663;50.864;12.096;2023-05-02T12:11:15;99854.84;;;21.21;45.65
11212;BME280;5663;50.864;12.096;2023-05-02T12:13:48;99829.94;;;20.83;46.83
11212;BME280;5663;50.864;12.096;2023-05-02T12:16:18;99858.09;;;20.73;46.68
11212;BME280;5663;50.864;12.096;2023-05-02T12:18:47;99871.66;;;20.58;46.80
11212;BME280;5663;50.864;12.096;2023-05-02T12:21:17;99849.47;;;20.29;47.18
11212;BME280;5663;50.864;12.096;2023-05-02T12:23:46;99865.56;;;20.26;47.90
11212;BME280;5663;50.864;12.096;2023-05-02T12:26:19;99870.69;;;20.06;48.63
11212;BME280;5663;50.864;12.096;2023-05-02T12:28:53;99885.88;;;19.93;49.53
11212;BME280;5663;50.864;12.096;2023-05-02T12:35:39;99884.25;;;19.58;50.10
11212;BME280;5663;50.864;12.096;2023-05-02T12:38:10;99894.56;;;19.50;51.03
11212;BME280;5663;50.864;12.096;2023-05-02T12:40:53;99898.66;;;19.54;51.23
11212;BME280;5663;50.864;12.096;2023-05-02T12:43:57;99950.22;;;19.58;52.25
11212;BME280;5663;50.864;12.096;2023-05-02T12:46:26;99940.38;;;19.27;49.73
11212;BME280;5663;50.864;12.096;2023-05-02T12:49:04;99932.06;;;18.86;49.77
11212;BME280;5663;50.864;12.096;2023-05-02T12:51:38;99918.72;;;18.30;50.46
11212;BME280;5663;50.864;12.096;2023-05-02T12:54:19;99950.59;;;18.14;51.41
11212;BME280;5663;50.864;12.096;2023-05-02T12:56:47;99960.78;;;17.95;52.30
11212;BME280;5663;50.864;12.096;2023-05-02T12:59:29;99954.94;;;17.66;51.88
11212;BME280;5663;50.864;12.096;2023-05-02T13:01:59;99933.75;;;17.18;52.78
11212;BME280;5663;50.864;12.096;2023-05-02T13:04:35;99965.13;;;17.08;53.96
11212;BME280;5663;50.864;12.096;2023-05-02T13:07:02;99965.00;;;16.97;54.67
11212;BME280;5663;50.864;12.096;2023-05-02T13:09:34;99976.84;;;16.90;55.24
11212;BME280;5663;50.864;12.096;2023-05-02T13:12:05;99973.56;;;16.73;56.36
11212;BME280;5663;50.864;12.096;2023-05-02T13:14:36;99971.22;;;16.69;57.76
11212;BME280;5663;50.864;12.096;2023-05-02T13:17:05;99972.06;;;16.69;58.47
11212;BME280;5663;50.864;12.096;2023-05-02T13:19:36;99968.66;;;16.55;58.65
11212;BME280;5663;50.864;12.096;2023-05-02T13:22:06;99968.09;;;16.37;58.73
11212;BME280;5663;50.864;12.096;2023-05-02T13:24:35;99966.81;;;16.30;59.60
11212;BME280;5663;50.864;12.096;2023-05-02T13:27:03;99983.84;;;16.37;59.48
11212;BME280;5663;50.864;12.096;2023-05-02T13:29:31;99981.75;;;16.42;59.51
11212;BME280;5663;50.864;12.096;2023-05-02T13:32:09;99985.69;;;16.49;60.05
11212;BME280;5663;50.864;12.096;2023-05-02T15:36:39;100092.13;;;15.85;57.01
11212;BME280;5663;50.864;12.096;2023-05-02T15:39:09;100092.28;;;15.82;57.56
11212;BME280;5663;50.864;12.096;2023-05-02T15:41:40;100096.59;;;15.83;57.53
11212;BME280;5663;50.864;12.096;2023-05-02T15:44:08;100086.22;;;15.81;57.60
11212;BME280;5663;50.864;12.096;2023-05-02T15:46:35;100084.25;;;15.85;57.38
11212;BME280;5663;50.864;12.096;2023-05-02T15:49:06;100091.28;;;15.84;57.21
11212;BME280;5663;50.864;12.096;2023-05-02T15:51:35;100094.16;;;15.80;56.89
11212;BME280;5663;50.864;12.096;2023-05-02T15:54:05;100101.00;;;15.68;57.20
11212;BME280;5663;50.864;12.096;2023-05-02T15:56:33;100100.50;;;15.61;57.23
11212;BME280;5663;50.864;12.096;2023-05-02T15:59:02;100078.75;;;15.45;57.45
11212;BME280;5663;50.864;12.096;2023-05-02T16:01:30;100102.34;;;15.59;57.63
11212;BME280;5663;50.864;12.096;2023-05-02T16:03:58;100102.34;;;15.59;57.83
11212;BME280;5663;50.864;12.096;2023-05-02T16:06:26;100105.75;;;15.61;58.06
11212;BME280;5663;50.864;12.096;2023-05-02T16:08:55;100111.81;;;15.62;57.51
11212;BME280;5663;50.864;12.096;2023-05-02T16:11:24;100109.94;;;15.49;56.88
11212;BME280;5663;50.864;12.096;2023-05-02T16:13:52;100120.69;;;15.45;57.07
11212;BME280;5663;50.864;12.096;2023-05-02T16:16:21;100117.69;;;15.37;57.15
11212;BME280;5663;50.864;12.096;2023-05-02T16:18:49;100104.69;;;15.19;57.01
11212;BME280;5663;50.864;12.096;2023-05-02T16:21:17;100133.59;;;15.34;57.17
11212;BME280;5663;50.864;12.096;2023-05-02T16:23:44;100132.75;;;15.33;56.88
11212;BME280;5663;50.864;12.096;2023-05-02T16:26:13;100139.00;;;15.31;57.27
11212;BME280;5663;50.864;12.096;2023-05-02T16:28:44;100140.88;;;15.28;57.23
11212;BME280;5663;50.864;12.096;2023-05-02T16:31:14;100143.09;;;15.20;57.12
11212;BME280;5663;50.864;12.096;2023-05-02T16:33:42;100123.19;;;15.02;57.22
